sensor_id;sensor_type;location;lat;lon;timestamp;temperature;humidity
13344;DHT22;6741;48.964;9.406;2023-05-27T00:00:55;14.20;1.00
13344;DHT22;6741;48.964;9.406;2023-05-27T00:03:22;14.20;89.00
13344;DHT22;6741;48.964;9.406;2023-05-27T00:05:49;14.20;1.00
13344;DHT22;6741;48.964;9.406;2023-05-27T00:08:16;14.30;1.00
13344;DHT22;6741;48.964;9.406;2023-05-27T00:10:44;14.30;70.70
13344;DHT22;6741;48.964;9.406;2023-05-27T00:13:10;14.20;99.90
13344;DHT22;6741;48.964;9.406;2023-05-27T00:15:40;14.30;99.90
13344;DHT22;6741;48.964;9.406;2023-05-27T00:18:07;14.30;1.00
13344;DHT22;6741;48.964;9.406;2023-05-27T00:20:34;14.20;1.00
13344;DHT22;6741;48.964;9.406;2023-05-27T00:23:01;14.10;99.90
13344;DHT22;6741;48.964;9.406;2023-05-27T00:25:28;14.10;99.90
13344;DHT22;6741;48.964;9.406;2023-05-27T00:27:56;14.10;99.90
13344;DHT22;6741;48.964;9.406;2023-05-27T00:30:23;14.00;28.60
13344;DHT22;6741;48.964;9.406;2023-05-27T00:32:51;14.00;1.00
13344;DHT22;6741;48.964;9.406;2023-05-27T00:35:18;13.90;1.00
13344;DHT22;6741;48.964;9.406;2023-05-27T00:37:45;13.80;1.00
13344;DHT22;6741;48.964;9.406;2023-05-27T00:40:14;13.80;1.00
13344;DHT22;6741;48.964;9.406;2023-05-27T00:42:41;13.80;1.00
13344;DHT22;6741;48.964;9.406;2023-05-27T00:45:10;13.70;1.00
13344;DHT22;6741;48.964;9.406;2023-05-27T00:47:37;13.80;99.90
13344;DHT22;6741;48.964;9.406;2023-05-27T00:50:07;13.70;1.00
13344;DHT22;6741;48.964;9.406;2023-05-27T00:52:34;13.70;99.90
13344;DHT22;6741;48.964;9.406;2023-05-27T00:55:01;13.60;99.90
13344;DHT22;6741;48.964;9.406;2023-05-27T00:57:28;13.60;1.00
13344;DHT22;6741;48.964;9.406;2023-05-27T00:59:55;13.50;99.90
13344;DHT22;6741;48.964;9.406;2023-05-27T01:02:22;13.60;1.00
13344;DHT22;6741;48.964;9.406;2023-05-27T01:04:49;13.50;99.90
13344;DHT22;6741;48.964;9.406;2023-05-27T01:07:25;13.60;1.00
13344;DHT22;6741;48.964;9.406;2023-05-27T01:09:55;13.60;96.90
13344;DHT22;6741;48.964;9.406;2023-05-27T01:12:29;13.50;1.00
13344;DHT22;6741;48.964;9.406;2023-05-27T01:14:58;13.50;1.00
13344;DHT22;6741;48.964;9.406;2023-05-27T01:17:27;13.40;64.90
13344;DHT22;6741;48.964;9.406;2023-05-27T01:19:55;13.40;52.90
13344;DHT22;6741;48.964;9.406;2023-05-27T01:22:27;13.40;99.90
13344;DHT22;6741;48.964;9.406;2023-05-27T01:24:54;13.30;1.00
13344;DHT22;6741;48.964;9.406;2023-05-27T01:27:21;13.30;99.90
13344;DHT22;6741;48.964;9.406;2023-05-27T01:29:51;13.20;99.90
13344;DHT22;6741;48.964;9.406;2023-05-27T01:32:21;13.20;99.90
13344;DHT22;6741;48.964;9.406;2023-05-27T01:34:55;13.20;1.00
13344;DHT22;6741;48.964;9.406;2023-05-27T01:37:27;13.20;1.00
13344;DHT22;6741;48.964;9.406;2023-05-27T01:39:55;13.10;1.00
13344;DHT22;6741;48.964;9.406;2023-05-27T01:42:22;13.10;1.00
13344;DHT22;6741;48.964;9.406;2023-05-27T01:44:50;13.00;1.00
13344;DHT22;6741;48.964;9.406;2023-05-27T01:47:17;13.00;1.00
13344;DHT22;6741;48.964;9.406;2023-05-27T01:49:44;13.00;1.00
13344;DHT22;6741;48.964;9.406;2023-05-27T01:52:11;12.90;1.00
13344;DHT22;6741;48.964;9.406;2023-05-27T01:54:40;12.90;1.00
13344;DHT22;6741;48.964;9.406;2023-05-27T01:57:06;12.80;99.90
13344;DHT22;6741;48.964;9.406;2023-05-27T01:59:33;12.80;99.90
13344;DHT22;6741;48.964;9.406;2023-05-27T02:02:00;12.80;98.60
13344;DHT22;6741;48.964;9.406;2023-05-27T02:04:27;12.80;99.90
13344;DHT22;6741;48.964;9.406;2023-05-27T02:06:54;12.70;99.90
13344;DHT22;6741;48.964;9.406;2023-05-27T02:09:21;12.80;99.90
13344;DHT22;6741;48.964;9.406;2023-05-27T02:11:49;12.70;99.90
13344;DHT22;6741;48.964;9.406;2023-05-27T02:14:16;12.70;99.90
13344;DHT22;6741;48.964;9.406;2023-05-27T02:16:43;12.70;99.90
13344;DHT22;6741;48.964;9.406;2023-05-27T02:19:10;12.70;99.90
13344;DHT22;6741;48.964;9.406;2023-05-27T02:21:37;12.60;99.90
13344;DHT22;6741;48.964;9.406;2023-05-27T02:24:05;12.70;99.90
13344;DHT22;6741;48.964;9.406;2023-05-27T02:26:32;12.70;99.90
13344;DHT22;6741;48.964;9.406;2023-05-27T02:29:00;12.60;99.90
13344;DHT22;6741;48.964;9.406;2023-05-27T02:31:27;12.60;99.90
13344;DHT22;6741;48.964;9.406;2023-05-27T02:33:54;12.50;99.90
13344;DHT22;6741;48.964;9.406;2023-05-27T02:36:21;12.50;99.90
13344;DHT22;6741;48.964;9.406;2023-05-27T02:38:49;12.50;1.00
13344;DHT22;6741;48.964;9.406;2023-05-27T02:41:16;12.40;99.90
13344;DHT22;6741;48.964;9.406;2023-05-27T02:43:43;12.40;1.00
13344;DHT22;6741;48.964;9.406;2023-05-27T02:46:11;12.40;1.00
13344;DHT22;6741;48.964;9.406;2023-05-27T02:48:38;12.40;1.00
13344;DHT22;6741;48.964;9.406;2023-05-27T02:51:06;12.40;1.00
13344;DHT22;6741;48.964;9.406;2023-05-27T02:53:33;12.40;1.00
13344;DHT22;6741;48.964;9.406;2023-05-27T02:56:00;12.40;99.90
13344;DHT22;6741;48.964;9.406;2023-05-27T02:58:27;12.40;1.00
13344;DHT22;6741;48.964;9.406;2023-05-27T03:00:54;12.40;1.00
13344;DHT22;6741;48.964;9.406;2023-05-27T03:03:22;12.30;1.00
13344;DHT22;6741;48.964;9.406;2023-05-27T03:05:49;12.30;1.00
13344;DHT22;6741;48.964;9.406;2023-05-27T03:08:16;12.20;1.00
13344;DHT22;6741;48.964;9.406;2023-05-27T03:10:43;12.20;1.00
13344;DHT22;6741;48.964;9.406;2023-05-27T03:13:10;12.10;1.00
13344;DHT22;6741;48.964;9.406;2023-05-27T03:15:37;12.10;1.00
13344;DHT22;6741;48.964;9.406;2023-05-27T03:18:04;12.10;1.00
13344;DHT22;6741;48.964;9.406;2023-05-27T03:20:32;12.00;1.00
13344;DHT22;6741;48.964;9.406;2023-05-27T03:22:59;12.00;1.00
13344;DHT22;6741;48.964;9.406;2023-05-27T03:25:26;12.00;1.00
13344;DHT22;6741;48.964;9.406;2023-05-27T03:27:54;12.00;1.00
13344;DHT22;6741;48.964;9.406;2023-05-27T03:30:21;12.00;1.00
13344;DHT22;6741;48.964;9.406;2023-05-27T03:32:48;12.00;1.00
13344;DHT22;6741;48.964;9.406;2023-05-27T03:35:15;12.00;1.00
13344;DHT22;6741;48.964;9.406;2023-05-27T03:37:43;12.00;1.00
13344;DHT22;6741;48.964;9.406;2023-05-27T03:40:12;12.00;1.00
13344;DHT22;6741;48.964;9.406;2023-05-27T03:42:39;12.00;1.00
13344;DHT22;6741;48.964;9.406;2023-05-27T03:45:06;11.90;1.00
13344;DHT22;6741;48.964;9.406;2023-05-27T03:47:34;11.90;1.00
13344;DHT22;6741;48.964;9.406;2023-05-27T03:50:01;11.90;1.00
13344;DHT22;6741;48.964;9.406;2023-05-27T03:52:28;12.00;1.00
13344;DHT22;6741;48.964;9.406;2023-05-27T03:54:56;12.00;1.00
13344;DHT22;6741;48.964;9.406;2023-05-27T03:57:23;11.90;1.00
13344;DHT22;6741;48.964;9.406;2023-05-27T03:59:50;11.90;1.00
13344;DHT22;6741;48.964;9.406;2023-05-27T04:02:17;11.90;1.00
13344;DHT22;6741;48.964;9.406;2023-05-27T04:04:44;11.90;1.00
13344;DHT22;6741;48.964;9.406;2023-05-27T04:07:11;12.00;1.00
13344;DHT22;6741;48.964;9.406;2023-05-27T04:09:38;11.90;1.00
13344;DHT22;6741;48.964;9.406;2023-05-27T04:12:08;11.90;1.00
13344;DHT22;6741;48.964;9.406;2023-05-27T04:14:35;11.90;1.00
13344;DHT22;6741;48.964;9.406;2023-05-27T04:17:02;11.90;1.00
13344;DHT22;6741;48.964;9.406;2023-05-27T04:19:29;11.80;1.00
13344;DHT22;6741;48.964;9.406;2023-05-27T04:21:58;11.90;1.00
13344;DHT22;6741;48.964;9.406;2023-05-27T04:24:25;11.90;1.00
13344;DHT22;6741;48.964;9.406;2023-05-27T04:26:52;11.90;1.00
13344;DHT22;6741;48.964;9.406;2023-05-27T04:29:20;11.90;1.00
13344;DHT22;6741;48.964;9.406;2023-05-27T04:31:48;11.90;1.00
13344;DHT22;6741;48.964;9.406;2023-05-27T04:34:16;11.90;1.00
13344;DHT22;6741;48.964;9.406;2023-05-27T04:36:43;12.00;1.00
13344;DHT22;6741;48.964;9.406;2023-05-27T04:39:15;12.00;1.00
13344;DHT22;6741;48.964;9.406;2023-05-27T04:41:42;12.00;1.00
13344;DHT22;6741;48.964;9.406;2023-05-27T04:44:09;12.00;1.00
13344;DHT22;6741;48.964;9.406;2023-05-27T04:46:37;12.10;1.00
13344;DHT22;6741;48.964;9.406;2023-05-27T04:49:06;12.10;1.00
13344;DHT22;6741;48.964;9.406;2023-05-27T04:51:33;12.10;1.00
13344;DHT22;6741;48.964;9.406;2023-05-27T04:54:01;12.20;1.00
13344;DHT22;6741;48.964;9.406;2023-05-27T04:56:28;12.20;1.00
13344;DHT22;6741;48.964;9.406;2023-05-27T04:58:55;12.20;1.00
13344;DHT22;6741;48.964;9.406;2023-05-27T05:01:24;12.30;1.00
13344;DHT22;6741;48.964;9.406;2023-05-27T05:03:54;12.30;1.00
13344;DHT22;6741;48.964;9.406;2023-05-27T05:06:38;12.30;1.00
13344;DHT22;6741;48.964;9.406;2023-05-27T05:09:05;12.40;1.00
13344;DHT22;6741;48.964;9.406;2023-05-27T05:11:33;12.50;1.00
13344;DHT22;6741;48.964;9.406;2023-05-27T05:14:00;12.50;1.00
13344;DHT22;6741;48.964;9.406;2023-05-27T05:16:26;12.50;1.00
13344;DHT22;6741;48.964;9.406;2023-05-27T05:18:55;12.60;1.00
13344;DHT22;6741;48.964;9.406;2023-05-27T05:21:22;12.70;1.00
13344;DHT22;6741;48.964;9.406;2023-05-27T05:23:49;12.70;1.00
13344;DHT22;6741;48.964;9.406;2023-05-27T05:26:19;12.80;99.90
13344;DHT22;6741;48.964;9.406;2023-05-27T05:28:46;12.80;99.90
13344;DHT22;6741;48.964;9.406;2023-05-27T05:31:13;12.90;99.90
13344;DHT22;6741;48.964;9.406;2023-05-27T05:33:40;13.00;99.90
13344;DHT22;6741;48.964;9.406;2023-05-27T05:36:09;13.00;99.90
13344;DHT22;6741;48.964;9.406;2023-05-27T05:38:35;13.10;99.90
13344;DHT22;6741;48.964;9.406;2023-05-27T05:41:03;13.20;1.00
13344;DHT22;6741;48.964;9.406;2023-05-27T05:43:30;13.30;1.00
13344;DHT22;6741;48.964;9.406;2023-05-27T05:45:57;13.40;99.90
13344;DHT22;6741;48.964;9.406;2023-05-27T05:48:25;13.50;1.00
13344;DHT22;6741;48.964;9.406;2023-05-27T05:50:52;13.60;1.00
13344;DHT22;6741;48.964;9.406;2023-05-27T05:53:20;13.70;99.90
13344;DHT22;6741;48.964;9.406;2023-05-27T05:55:48;13.70;99.90
13344;DHT22;6741;48.964;9.406;2023-05-27T05:58:15;13.80;99.90
13344;DHT22;6741;48.964;9.406;2023-05-27T06:00:42;13.90;1.00
13344;DHT22;6741;48.964;9.406;2023-05-27T06:03:09;14.00;99.90
13344;DHT22;6741;48.964;9.406;2023-05-27T06:05:36;14.00;99.90
13344;DHT22;6741;48.964;9.406;2023-05-27T06:08:04;14.10;1.00
13344;DHT22;6741;48.964;9.406;2023-05-27T06:10:32;14.20;99.90
13344;DHT22;6741;48.964;9.406;2023-05-27T06:13:00;14.20;1.00
13344;DHT22;6741;48.964;9.406;2023-05-27T06:15:27;14.40;98.70
13344;DHT22;6741;48.964;9.406;2023-05-27T06:17:54;14.50;1.00
13344;DHT22;6741;48.964;9.406;2023-05-27T06:20:21;14.60;99.90
13344;DHT22;6741;48.964;9.406;2023-05-27T06:22:48;14.70;1.00
13344;DHT22;6741;48.964;9.406;2023-05-27T06:25:15;14.80;1.00
13344;DHT22;6741;48.964;9.406;2023-05-27T06:27:43;14.90;99.90
13344;DHT22;6741;48.964;9.406;2023-05-27T06:30:11;15.00;1.00
13344;DHT22;6741;48.964;9.406;2023-05-27T06:32:38;15.00;99.90
13344;DHT22;6741;48.964;9.406;2023-05-27T06:35:05;15.10;99.90
13344;DHT22;6741;48.964;9.406;2023-05-27T06:37:32;15.20;99.90
13344;DHT22;6741;48.964;9.406;2023-05-27T06:39:59;15.40;99.90
13344;DHT22;6741;48.964;9.406;2023-05-27T06:42:26;15.40;99.90
13344;DHT22;6741;48.964;9.406;2023-05-27T06:44:55;15.50;99.90
13344;DHT22;6741;48.964;9.406;2023-05-27T06:47:24;15.60;99.90
13344;DHT22;6741;48.964;9.406;2023-05-27T06:49:51;15.60;99.90
13344;DHT22;6741;48.964;9.406;2023-05-27T06:52:18;15.70;92.00
13344;DHT22;6741;48.964;9.406;2023-05-27T06:54:45;15.80;82.60
13344;DHT22;6741;48.964;9.406;2023-05-27T06:57:13;15.90;1.00
13344;DHT22;6741;48.964;9.406;2023-05-27T06:59:40;15.90;99.90
13344;DHT22;6741;48.964;9.406;2023-05-27T07:02:08;15.90;99.90
13344;DHT22;6741;48.964;9.406;2023-05-27T07:04:36;16.00;1.00
13344;DHT22;6741;48.964;9.406;2023-05-27T07:07:03;16.20;1.00
13344;DHT22;6741;48.964;9.406;2023-05-27T07:09:31;16.30;99.90
13344;DHT22;6741;48.964;9.406;2023-05-27T07:11:59;16.40;71.50
13344;DHT22;6741;48.964;9.406;2023-05-27T07:14:26;16.50;99.90
13344;DHT22;6741;48.964;9.406;2023-05-27T07:16:53;16.60;99.90
13344;DHT22;6741;48.964;9.406;2023-05-27T07:19:23;16.60;1.00
13344;DHT22;6741;48.964;9.406;2023-05-27T07:21:50;16.70;1.00
13344;DHT22;6741;48.964;9.406;2023-05-27T07:24:17;16.90;1.00
13344;DHT22;6741;48.964;9.406;2023-05-27T07:26:44;17.00;1.00
13344;DHT22;6741;48.964;9.406;2023-05-27T07:29:10;17.20;1.00
13344;DHT22;6741;48.964;9.406;2023-05-27T07:31:37;17.40;99.90
13344;DHT22;6741;48.964;9.406;2023-05-27T07:34:04;17.40;99.90
13344;DHT22;6741;48.964;9.406;2023-05-27T07:36:33;17.30;83.40
13344;DHT22;6741;48.964;9.406;2023-05-27T07:39:00;17.50;99.90
13344;DHT22;6741;48.964;9.406;2023-05-27T07:41:27;17.60;99.90
13344;DHT22;6741;48.964;9.406;2023-05-27T07:43:55;17.70;58.40
13344;DHT22;6741;48.964;9.406;2023-05-27T07:46:22;17.80;1.00
13344;DHT22;6741;48.964;9.406;2023-05-27T07:48:49;17.90;99.90
13344;DHT22;6741;48.964;9.406;2023-05-27T07:51:16;18.00;1.00
13344;DHT22;6741;48.964;9.406;2023-05-27T07:53:45;18.00;1.00
13344;DHT22;6741;48.964;9.406;2023-05-27T07:56:13;18.30;1.00
13344;DHT22;6741;48.964;9.406;2023-05-27T07:58:40;18.30;1.00
13344;DHT22;6741;48.964;9.406;2023-05-27T08:01:07;18.50;1.00
13344;DHT22;6741;48.964;9.406;2023-05-27T08:03:34;18.70;8.70
13344;DHT22;6741;48.964;9.406;2023-05-27T08:06:01;18.80;1.00
13344;DHT22;6741;48.964;9.406;2023-05-27T08:08:28;19.00;1.00
13344;DHT22;6741;48.964;9.406;2023-05-27T08:10:56;19.10;1.00
13344;DHT22;6741;48.964;9.406;2023-05-27T08:13:23;19.00;1.00
13344;DHT22;6741;48.964;9.406;2023-05-27T08:15:51;19.20;25.70
13344;DHT22;6741;48.964;9.406;2023-05-27T08:18:18;19.10;1.00
13344;DHT22;6741;48.964;9.406;2023-05-27T08:20:45;19.20;99.90
13344;DHT22;6741;48.964;9.406;2023-05-27T08:23:13;19.30;1.00
13344;DHT22;6741;48.964;9.406;2023-05-27T08:25:40;19.40;1.00
13344;DHT22;6741;48.964;9.406;2023-05-27T08:28:09;19.50;13.50
13344;DHT22;6741;48.964;9.406;2023-05-27T08:30:40;19.40;1.00
13344;DHT22;6741;48.964;9.406;2023-05-27T08:33:10;19.60;1.00
13344;DHT22;6741;48.964;9.406;2023-05-27T08:35:37;19.70;1.00
13344;DHT22;6741;48.964;9.406;2023-05-27T08:38:04;19.70;1.00
13344;DHT22;6741;48.964;9.406;2023-05-27T08:40:31;19.80;1.00
13344;DHT22;6741;48.964;9.406;2023-05-27T08:42:58;19.80;1.00
13344;DHT22;6741;48.964;9.406;2023-05-27T08:45:27;19.90;31.30
13344;DHT22;6741;48.964;9.406;2023-05-27T08:47:54;20.00;1.00
13344;DHT22;6741;48.964;9.406;2023-05-27T08:50:22;20.20;1.00
13344;DHT22;6741;48.964;9.406;2023-05-27T08:52:52;20.60;1.00
13344;DHT22;6741;48.964;9.406;2023-05-27T08:55:21;20.70;50.30
13344;DHT22;6741;48.964;9.406;2023-05-27T08:57:51;20.60;1.00
13344;DHT22;6741;48.964;9.406;2023-05-27T09:00:19;20.60;99.90
13344;DHT22;6741;48.964;9.406;2023-05-27T09:02:47;20.70;99.90
13344;DHT22;6741;48.964;9.406;2023-05-27T09:05:15;21.00;99.90
13344;DHT22;6741;48.964;9.406;2023-05-27T09:07:43;21.20;99.90
13344;DHT22;6741;48.964;9.406;2023-05-27T09:10:11;21.30;99.90
13344;DHT22;6741;48.964;9.406;2023-05-27T09:12:38;21.40;1.00
13344;DHT22;6741;48.964;9.406;2023-05-27T09:15:09;21.40;99.90
13344;DHT22;6741;48.964;9.406;2023-05-27T09:17:40;21.60;1.00
13344;DHT22;6741;48.964;9.406;2023-05-27T09:20:11;21.80;99.90
13344;DHT22;6741;48.964;9.406;2023-05-27T09:22:39;21.90;1.00
13344;DHT22;6741;48.964;9.406;2023-05-27T09:25:07;21.80;1.00
13344;DHT22;6741;48.964;9.406;2023-05-27T09:27:36;22.00;99.90
13344;DHT22;6741;48.964;9.406;2023-05-27T09:30:07;22.20;1.00
13344;DHT22;6741;48.964;9.406;2023-05-27T09:32:35;22.20;1.00
13344;DHT22;6741;48.964;9.406;2023-05-27T09:35:05;22.30;99.90
13344;DHT22;6741;48.964;9.406;2023-05-27T09:37:34;22.50;1.00
13344;DHT22;6741;48.964;9.406;2023-05-27T09:40:05;22.60;99.90
13344;DHT22;6741;48.964;9.406;2023-05-27T09:42:40;22.80;28.70
13344;DHT22;6741;48.964;9.406;2023-05-27T09:45:08;23.00;1.00
13344;DHT22;6741;48.964;9.406;2023-05-27T09:47:39;23.00;1.00
13344;DHT22;6741;48.964;9.406;2023-05-27T09:50:10;23.20;99.90
13344;DHT22;6741;48.964;9.406;2023-05-27T09:52:43;23.10;99.90
13344;DHT22;6741;48.964;9.406;2023-05-27T09:55:11;23.30;1.00
13344;DHT22;6741;48.964;9.406;2023-05-27T09:57:40;23.40;78.30
13344;DHT22;6741;48.964;9.406;2023-05-27T10:00:09;23.40;99.90
13344;DHT22;6741;48.964;9.406;2023-05-27T10:02:40;23.30;99.90
13344;DHT22;6741;48.964;9.406;2023-05-27T10:05:08;23.40;1.00
13344;DHT22;6741;48.964;9.406;2023-05-27T10:07:37;23.30;99.90
13344;DHT22;6741;48.964;9.406;2023-05-27T10:10:08;23.40;1.00
13344;DHT22;6741;48.964;9.406;2023-05-27T10:12:36;23.50;1.00
13344;DHT22;6741;48.964;9.406;2023-05-27T10:15:05;23.60;1.00
13344;DHT22;6741;48.964;9.406;2023-05-27T10:17:41;23.90;99.90
13344;DHT22;6741;48.964;9.406;2023-05-27T10:20:09;24.20;78.90
13344;DHT22;6741;48.964;9.406;2023-05-27T10:22:43;24.40;1.00
13344;DHT22;6741;48.964;9.406;2023-05-27T10:25:15;24.60;99.90
13344;DHT22;6741;48.964;9.406;2023-05-27T10:27:44;24.80;1.00
13344;DHT22;6741;48.964;9.406;2023-05-27T10:30:12;24.70;1.00
13344;DHT22;6741;48.964;9.406;2023-05-27T10:32:58;24.90;99.90
13344;DHT22;6741;48.964;9.406;2023-05-27T10:35:26;24.90;99.90
13344;DHT22;6741;48.964;9.406;2023-05-27T10:37:53;24.80;99.90
13344;DHT22;6741;48.964;9.406;2023-05-27T10:40:25;24.90;1.00
13344;DHT22;6741;48.964;9.406;2023-05-27T10:42:59;25.30;99.90
13344;DHT22;6741;48.964;9.406;2023-05-27T10:45:36;25.60;1.00
13344;DHT22;6741;48.964;9.406;2023-05-27T10:48:03;25.60;1.00
13344;DHT22;6741;48.964;9.406;2023-05-27T10:50:31;25.70;1.00
13344;DHT22;6741;48.964;9.406;2023-05-27T10:53:00;25.50;1.00
13344;DHT22;6741;48.964;9.406;2023-05-27T10:55:30;25.70;1.00
13344;DHT22;6741;48.964;9.406;2023-05-27T10:57:58;25.90;1.00
13344;DHT22;6741;48.964;9.406;2023-05-27T11:00:26;26.10;97.90
13344;DHT22;6741;48.964;9.406;2023-05-27T11:02:54;26.00;99.90
13344;DHT22;6741;48.964;9.406;2023-05-27T11:05:28;26.00;99.90
13344;DHT22;6741;48.964;9.406;2023-05-27T11:07:59;26.60;1.00
13344;DHT22;6741;48.964;9.406;2023-05-27T11:10:25;26.60;1.00
13344;DHT22;6741;48.964;9.406;2023-05-27T11:12:54;26.80;1.00
13344;DHT22;6741;48.964;9.406;2023-05-27T11:15:21;26.70;1.00
13344;DHT22;6741;48.964;9.406;2023-05-27T11:17:47;27.20;99.90
13344;DHT22;6741;48.964;9.406;2023-05-27T11:20:14;27.00;91.20
13344;DHT22;6741;48.964;9.406;2023-05-27T11:22:49;27.40;99.90
13344;DHT22;6741;48.964;9.406;2023-05-27T11:25:16;27.60;99.90
13344;DHT22;6741;48.964;9.406;2023-05-27T11:27:43;27.30;1.00
13344;DHT22;6741;48.964;9.406;2023-05-27T11:30:12;27.20;99.90
13344;DHT22;6741;48.964;9.406;2023-05-27T11:32:41;27.30;99.90
13344;DHT22;6741;48.964;9.406;2023-05-27T11:35:13;27.60;99.90
13344;DHT22;6741;48.964;9.406;2023-05-27T11:37:40;28.20;1.00
13344;DHT22;6741;48.964;9.406;2023-05-27T11:40:11;28.20;1.00
13344;DHT22;6741;48.964;9.406;2023-05-27T11:42:43;28.50;99.90
13344;DHT22;6741;48.964;9.406;2023-05-27T11:45:16;28.40;99.90
13344;DHT22;6741;48.964;9.406;2023-05-27T11:47:44;28.20;22.50
13344;DHT22;6741;48.964;9.406;2023-05-27T11:50:14;28.10;1.00
13344;DHT22;6741;48.964;9.406;2023-05-27T11:52:51;28.00;99.90
13344;DHT22;6741;48.964;9.406;2023-05-27T11:55:18;28.60;99.90
13344;DHT22;6741;48.964;9.406;2023-05-27T11:57:45;28.50;1.00
13344;DHT22;6741;48.964;9.406;2023-05-27T12:00:13;28.30;1.00
13344;DHT22;6741;48.964;9.406;2023-05-27T12:02:42;28.30;1.00
13344;DHT22;6741;48.964;9.406;2023-05-27T12:05:09;28.90;1.00
13344;DHT22;6741;48.964;9.406;2023-05-27T12:07:36;29.10;12.60
13344;DHT22;6741;48.964;9.406;2023-05-27T12:10:07;29.40;49.40
13344;DHT22;6741;48.964;9.406;2023-05-27T12:12:34;29.80;1.00
13344;DHT22;6741;48.964;9.406;2023-05-27T12:15:02;29.70;99.90
13344;DHT22;6741;48.964;9.406;2023-05-27T12:17:29;29.40;1.00
13344;DHT22;6741;48.964;9.406;2023-05-27T12:19:58;29.50;1.00
13344;DHT22;6741;48.964;9.406;2023-05-27T12:22:25;29.70;1.00
13344;DHT22;6741;48.964;9.406;2023-05-27T12:24:52;29.30;1.00
13344;DHT22;6741;48.964;9.406;2023-05-27T12:27:20;29.60;1.00
13344;DHT22;6741;48.964;9.406;2023-05-27T12:29:46;30.00;1.00
13344;DHT22;6741;48.964;9.406;2023-05-27T12:32:13;29.60;7.50
13344;DHT22;6741;48.964;9.406;2023-05-27T12:34:41;30.30;1.00
13344;DHT22;6741;48.964;9.406;2023-05-27T12:37:09;29.80;99.90
13344;DHT22;6741;48.964;9.406;2023-05-27T12:39:36;30.30;99.90
13344;DHT22;6741;48.964;9.406;2023-05-27T12:42:04;30.70;99.90
13344;DHT22;6741;48.964;9.406;2023-05-27T12:44:31;31.00;99.90
13344;DHT22;6741;48.964;9.406;2023-05-27T12:46:58;30.50;1.00
13344;DHT22;6741;48.964;9.406;2023-05-27T12:49:25;29.80;99.90
13344;DHT22;6741;48.964;9.406;2023-05-27T12:51:52;29.80;99.90
13344;DHT22;6741;48.964;9.406;2023-05-27T12:54:20;30.00;99.90
13344;DHT22;6741;48.964;9.406;2023-05-27T12:56:47;30.40;99.90
13344;DHT22;6741;48.964;9.406;2023-05-27T12:59:14;30.50;99.90
13344;DHT22;6741;48.964;9.406;2023-05-27T13:01:41;30.30;99.90
13344;DHT22;6741;48.964;9.406;2023-05-27T13:04:08;30.30;99.90
13344;DHT22;6741;48.964;9.406;2023-05-27T13:06:35;30.30;99.90
13344;DHT22;6741;48.964;9.406;2023-05-27T13:09:03;30.70;99.90
13344;DHT22;6741;48.964;9.406;2023-05-27T13:11:33;30.90;99.90
13344;DHT22;6741;48.964;9.406;2023-05-27T13:14:01;30.40;99.90
13344;DHT22;6741;48.964;9.406;2023-05-27T13:16:28;29.90;1.00
13344;DHT22;6741;48.964;9.406;2023-05-27T13:18:56;30.30;1.00
13344;DHT22;6741;48.964;9.406;2023-05-27T13:21:23;30.10;1.00
13344;DHT22;6741;48.964;9.406;2023-05-27T13:23:51;30.40;1.00
13344;DHT22;6741;48.964;9.406;2023-05-27T13:26:18;31.20;1.00
13344;DHT22;6741;48.964;9.406;2023-05-27T13:28:47;31.30;1.00
13344;DHT22;6741;48.964;9.406;2023-05-27T13:31:14;31.70;1.00
13344;DHT22;6741;48.964;9.406;2023-05-27T13:33:42;31.80;1.00
13344;DHT22;6741;48.964;9.406;2023-05-27T13:36:09;31.70;1.00
13344;DHT22;6741;48.964;9.406;2023-05-27T13:38:36;32.30;1.00
13344;DHT22;6741;48.964;9.406;2023-05-27T13:41:03;32.80;1.00
13344;DHT22;6741;48.964;9.406;2023-05-27T13:43:31;33.00;1.00
13344;DHT22;6741;48.964;9.406;2023-05-27T13:45:59;32.50;1.00
13344;DHT22;6741;48.964;9.406;2023-05-27T13:48:26;32.40;1.00
13344;DHT22;6741;48.964;9.406;2023-05-27T13:50:53;32.00;1.00
13344;DHT22;6741;48.964;9.406;2023-05-27T13:53:20;32.20;1.00
13344;DHT22;6741;48.964;9.406;2023-05-27T13:55:47;32.10;1.00
13344;DHT22;6741;48.964;9.406;2023-05-27T13:58:17;32.30;1.00
13344;DHT22;6741;48.964;9.406;2023-05-27T14:00:44;32.10;1.00
13344;DHT22;6741;48.964;9.406;2023-05-27T14:03:13;32.10;1.00
13344;DHT22;6741;48.964;9.406;2023-05-27T14:05:40;32.70;1.00
13344;DHT22;6741;48.964;9.406;2023-05-27T14:08:07;32.90;1.00
13344;DHT22;6741;48.964;9.406;2023-05-27T14:10:34;32.40;1.00
13344;DHT22;6741;48.964;9.406;2023-05-27T14:13:01;32.30;1.00
13344;DHT22;6741;48.964;9.406;2023-05-27T14:15:28;32.30;1.00
13344;DHT22;6741;48.964;9.406;2023-05-27T14:17:56;32.20;1.00
13344;DHT22;6741;48.964;9.406;2023-05-27T14:20:27;32.60;1.00
13344;DHT22;6741;48.964;9.406;2023-05-27T14:22:54;32.90;1.00
13344;DHT22;6741;48.964;9.406;2023-05-27T14:25:21;33.20;1.00
13344;DHT22;6741;48.964;9.406;2023-05-27T14:27:49;33.30;1.00
13344;DHT22;6741;48.964;9.406;2023-05-27T14:30:16;33.00;1.00
13344;DHT22;6741;48.964;9.406;2023-05-27T14:32:43;33.00;1.00
13344;DHT22;6741;48.964;9.406;2023-05-27T14:35:10;32.20;1.00
13344;DHT22;6741;48.964;9.406;2023-05-27T14:37:39;32.40;1.00
13344;DHT22;6741;48.964;9.406;2023-05-27T14:40:07;32.20;1.00
13344;DHT22;6741;48.964;9.406;2023-05-27T14:42:34;31.70;1.00
13344;DHT22;6741;48.964;9.406;2023-05-27T14:45:04;31.60;1.00
13344;DHT22;6741;48.964;9.406;2023-05-27T14:47:33;32.00;1.00
13344;DHT22;6741;48.964;9.406;2023-05-27T14:49:59;31.70;1.00
13344;DHT22;6741;48.964;9.406;2023-05-27T14:52:26;32.30;1.00
13344;DHT22;6741;48.964;9.406;2023-05-27T14:54:55;32.10;1.00
13344;DHT22;6741;48.964;9.406;2023-05-27T14:57:22;32.10;1.00
13344;DHT22;6741;48.964;9.406;2023-05-27T14:59:49;31.70;1.00
13344;DHT22;6741;48.964;9.406;2023-05-27T15:02:16;31.50;1.00
13344;DHT22;6741;48.964;9.406;2023-05-27T15:04:43;31.00;1.00
13344;DHT22;6741;48.964;9.406;2023-05-27T15:07:10;30.70;1.00
13344;DHT22;6741;48.964;9.406;2023-05-27T15:09:40;30.60;1.00
13344;DHT22;6741;48.964;9.406;2023-05-27T15:12:10;30.70;1.00
13344;DHT22;6741;48.964;9.406;2023-05-27T15:14:37;31.10;1.00
13344;DHT22;6741;48.964;9.406;2023-05-27T15:17:04;31.20;1.00
13344;DHT22;6741;48.964;9.406;2023-05-27T15:19:31;31.20;1.00
13344;DHT22;6741;48.964;9.406;2023-05-27T15:21:58;30.80;1.00
13344;DHT22;6741;48.964;9.406;2023-05-27T15:24:25;30.50;1.00
13344;DHT22;6741;48.964;9.406;2023-05-27T15:26:53;30.50;1.00
13344;DHT22;6741;48.964;9.406;2023-05-27T15:29:21;30.00;1.00
13344;DHT22;6741;48.964;9.406;2023-05-27T15:31:50;30.00;1.00
13344;DHT22;6741;48.964;9.406;2023-05-27T15:34:17;29.80;1.00
13344;DHT22;6741;48.964;9.406;2023-05-27T15:36:44;29.60;1.00
13344;DHT22;6741;48.964;9.406;2023-05-27T15:39:11;29.20;1.00
13344;DHT22;6741;48.964;9.406;2023-05-27T15:41:39;29.10;1.00
13344;DHT22;6741;48.964;9.406;2023-05-27T15:44:06;29.10;1.00
13344;DHT22;6741;48.964;9.406;2023-05-27T15:46:35;29.10;1.00
13344;DHT22;6741;48.964;9.406;2023-05-27T15:49:02;29.10;1.00
13344;DHT22;6741;48.964;9.406;2023-05-27T15:51:29;29.20;1.00
13344;DHT22;6741;48.964;9.406;2023-05-27T15:53:56;29.30;1.00
13344;DHT22;6741;48.964;9.406;2023-05-27T15:56:23;29.50;1.00
13344;DHT22;6741;48.964;9.406;2023-05-27T15:58:51;29.40;1.00
13344;DHT22;6741;48.964;9.406;2023-05-27T16:01:18;29.40;1.00